Time;durP1;ratioP1;P1;durP2;ratioP2;P2;SDS_P1;SDS_P2;PMS_P1;PMS_P2;Temp;Humidity;BMP_temperature;BMP_pressure;BME280_temperature;BME280_humidity;BME280_pressure;Samples;Min_cycle;Max_cycle;Signal;HPM_P1;HPM_P2
2023/09/24 00:01:04;;;;;;;6.53;4.68;;;13.30;99.90;;;;;;5032570;28;20063;-71
2023/09/24 00:03:31;;;;;;;8.20;4.47;;;13.30;99.90;;;;;;5037064;28;20029;-72
2023/09/24 00:05:59;;;;;;;10.20;4.90;;;13.30;99.90;;;;;;5028088;28;20038;-72
2023/09/24 00:08:24;;;;;;;8.07;4.35;;;13.30;99.90;;;;;;5012013;28;20040;-72
2023/09/24 00:10:52;;;;;;;7.65;4.55;;;13.30;99.90;;;;;;5009281;28;20454;-71
2023/09/24 00:13:19;;;;;;;7.22;4.97;;;13.30;99.90;;;;;;5029132;28;20041;-72
2023/09/24 00:15:45;;;;;;;9.93;5.15;;;13.20;99.90;;;;;;5029081;28;20037;-72
2023/09/24 00:18:11;;;;;;;7.15;4.90;;;13.20;99.90;;;;;;5030275;28;20399;-71
2023/09/24 00:20:36;;;;;;;7.30;5.00;;;13.20;99.90;;;;;;5020248;28;20045;-72
2023/09/24 00:23:02;;;;;;;9.38;5.20;;;13.20;99.90;;;;;;5029191;28;20041;-72
2023/09/24 00:25:28;;;;;;;7.10;4.80;;;13.20;99.90;;;;;;5029422;28;20052;-72
2023/09/24 00:27:55;;;;;;;7.00;5.28;;;13.10;99.90;;;;;;5029563;28;20038;-72
2023/09/24 00:30:21;;;;;;;6.78;5.00;;;13.10;99.90;;;;;;5029961;28;20042;-72
2023/09/24 00:32:46;;;;;;;7.15;4.88;;;13.10;99.90;;;;;;5016146;28;20037;-71
2023/09/24 00:35:12;;;;;;;8.45;5.20;;;13.00;99.90;;;;;;5016062;28;20038;-72
2023/09/24 00:37:37;;;;;;;9.85;5.05;;;13.00;99.90;;;;;;5029007;28;20052;-72
2023/09/24 00:40:04;;;;;;;7.32;4.70;;;13.00;99.90;;;;;;5029014;28;20483;-72
2023/09/24 00:42:31;;;;;;;6.60;4.88;;;13.00;99.90;;;;;;5029470;28;20041;-72
2023/09/24 00:44:58;;;;;;;7.18;5.40;;;12.90;99.90;;;;;;5030846;28;20487;-72
2023/09/24 00:47:24;;;;;;;10.10;4.60;;;12.90;99.90;;;;;;5029630;28;20495;-72
2023/09/24 00:49:50;;;;;;;6.18;4.55;;;12.90;99.90;;;;;;5033331;28;20030;-72
2023/09/24 00:52:16;;;;;;;6.55;4.40;;;12.90;99.90;;;;;;5018835;28;20037;-71
2023/09/24 00:54:42;;;;;;;8.63;4.55;;;12.90;99.90;;;;;;5026332;28;20064;-71
2023/09/24 00:57:08;;;;;;;7.65;4.38;;;12.90;99.90;;;;;;5008587;28;20045;-72
2023/09/24 00:59:34;;;;;;;7.05;4.82;;;12.90;99.90;;;;;;5026816;28;20476;-71
2023/09/24 01:02:01;;;;;;;8.07;4.78;;;12.90;99.90;;;;;;5034485;28;20087;-71
2023/09/24 01:04:27;;;;;;;8.98;5.15;;;12.80;99.90;;;;;;5015116;28;20036;-72
2023/09/24 01:06:53;;;;;;;6.40;4.70;;;12.90;99.90;;;;;;5024600;28;20432;-72
2023/09/24 01:09:19;;;;;;;10.43;5.13;;;12.80;99.90;;;;;;5020892;28;20073;-72
2023/09/24 01:11:45;;;;;;;9.57;5.45;;;12.80;99.90;;;;;;5019455;28;20085;-72
2023/09/24 01:14:11;;;;;;;9.27;4.80;;;12.80;99.90;;;;;;5029023;28;20083;-72
2023/09/24 01:16:38;;;;;;;6.75;4.95;;;12.80;99.90;;;;;;5029430;28;20053;-72
2023/09/24 01:19:05;;;;;;;8.32;4.68;;;12.80;99.90;;;;;;5033268;28;20040;-72
2023/09/24 01:21:31;;;;;;;10.05;4.97;;;12.80;99.90;;;;;;5037624;28;20034;-72
2023/09/24 01:23:59;;;;;;;6.55;4.72;;;12.80;99.90;;;;;;5030115;28;20078;-70
2023/09/24 01:26:25;;;;;;;8.48;4.32;;;12.80;99.90;;;;;;5020034;28;20037;-72
2023/09/24 01:28:51;;;;;;;7.88;4.07;;;12.70;99.90;;;;;;5032845;28;20108;-72
2023/09/24 01:31:20;;;;;;;8.80;4.60;;;12.70;99.90;;;;;;5022998;28;20052;-72
2023/09/24 01:33:47;;;;;;;8.15;3.88;;;12.70;99.90;;;;;;5028587;28;20484;-71
2023/09/24 01:36:13;;;;;;;8.95;3.97;;;12.70;99.90;;;;;;5030389;28;20116;-72
2023/09/24 01:38:41;;;;;;;7.70;3.95;;;12.60;99.90;;;;;;5032553;28;20121;-72
2023/09/24 01:41:10;;;;;;;7.35;4.15;;;12.60;99.90;;;;;;5019848;28;20055;-72
2023/09/24 01:43:36;;;;;;;6.75;4.00;;;12.60;99.90;;;;;;5032398;28;20447;-71
2023/09/24 01:46:05;;;;;;;6.10;3.55;;;12.60;99.90;;;;;;4998117;28;20041;-72
2023/09/24 01:48:32;;;;;;;7.28;3.95;;;12.60;99.90;;;;;;5032291;28;20084;-72
2023/09/24 01:51:04;;;;;;;7.63;4.15;;;12.50;99.90;;;;;;5032673;28;20281;-72
2023/09/24 01:53:32;;;;;;;6.78;4.00;;;12.50;99.90;;;;;;5028846;28;20090;-72
2023/09/24 01:56:00;;;;;;;6.15;3.92;;;12.50;99.90;;;;;;5023087;28;20530;-72
2023/09/24 01:58:26;;;;;;;7.57;3.85;;;12.40;99.90;;;;;;5032524;28;20034;-72
2023/09/24 02:00:52;;;;;;;5.88;3.70;;;12.40;99.90;;;;;;5031604;28;20399;-72
2023/09/24 02:03:18;;;;;;;6.97;3.67;;;12.30;99.90;;;;;;5031826;28;20099;-72
2023/09/24 02:05:44;;;;;;;5.50;3.92;;;12.30;99.90;;;;;;5022255;28;20526;-72
2023/09/24 02:08:16;;;;;;;5.60;3.35;;;12.30;99.90;;;;;;5011621;28;20081;-72
2023/09/24 02:10:42;;;;;;;6.72;3.58;;;12.30;99.90;;;;;;5026238;28;20037;-72
2023/09/24 02:13:10;;;;;;;8.48;3.97;;;12.20;99.90;;;;;;5030559;28;20103;-72
2023/09/24 02:15:38;;;;;;;8.52;3.80;;;12.20;99.90;;;;;;5029695;28;20500;-72
2023/09/24 02:18:04;;;;;;;7.57;3.60;;;12.20;99.90;;;;;;5015679;28;20487;-72
2023/09/24 02:22:58;;;;;;;7.40;3.90;;;12.10;99.90;;;;;;5014457;28;20049;-71
2023/09/24 02:25:28;;;;;;;7.82;3.80;;;12.10;99.90;;;;;;5031839;28;20045;-70
2023/09/24 02:27:55;;;;;;;6.93;3.67;;;12.10;99.90;;;;;;5032316;28;20399;-72
2023/09/24 02:30:23;;;;;;;5.47;3.83;;;12.00;99.90;;;;;;5039479;28;20041;-72
2023/09/24 02:32:49;;;;;;;6.25;3.63;;;12.00;99.90;;;;;;5014845;28;20087;-72
2023/09/24 02:35:15;;;;;;;7.32;3.90;;;12.00;99.90;;;;;;5030434;28;20146;-72
2023/09/24 02:37:47;;;;;;;8.48;4.20;;;12.00;99.90;;;;;;5035155;28;20033;-72
2023/09/24 02:40:15;;;;;;;8.05;4.03;;;12.00;99.90;;;;;;5031330;28;20033;-72
2023/09/24 02:42:42;;;;;;;8.70;4.03;;;12.00;99.90;;;;;;5026249;28;20045;-72
2023/09/24 02:45:09;;;;;;;6.78;4.38;;;12.00;99.90;;;;;;5019330;28;20117;-72
2023/09/24 02:47:36;;;;;;;7.70;4.50;;;11.90;99.90;;;;;;5030715;28;20597;-72
2023/09/24 02:50:07;;;;;;;8.55;4.35;;;11.90;99.90;;;;;;5031423;28;20109;-70
2023/09/24 02:52:33;;;;;;;8.93;4.50;;;11.90;99.90;;;;;;5033167;28;20094;-72
2023/09/24 02:54:59;;;;;;;8.10;4.65;;;11.90;99.90;;;;;;5028158;28;20443;-72
2023/09/24 02:57:25;;;;;;;9.98;4.97;;;11.90;99.90;;;;;;5031326;28;20037;-71
2023/09/24 02:59:50;;;;;;;7.65;4.43;;;11.80;99.90;;;;;;5031112;28;20072;-72
2023/09/24 03:02:16;;;;;;;7.57;4.88;;;11.80;99.90;;;;;;5030682;28;20461;-71
2023/09/24 03:04:42;;;;;;;8.93;4.75;;;11.80;99.90;;;;;;5030893;28;20048;-72
2023/09/24 03:07:09;;;;;;;8.38;4.65;;;11.80;99.90;;;;;;5031108;28;20065;-72
2023/09/24 03:09:34;;;;;;;9.02;4.88;;;11.80;99.90;;;;;;5030489;28;20041;-72
2023/09/24 03:12:00;;;;;;;10.13;5.30;;;11.80;99.90;;;;;;5034668;28;20652;-72
2023/09/24 03:14:25;;;;;;;9.07;5.20;;;11.80;99.90;;;;;;5020690;28;20045;-72
2023/09/24 03:16:51;;;;;;;7.93;5.10;;;11.80;99.90;;;;;;5021646;28;20480;-72
2023/09/24 03:19:18;;;;;;;10.13;5.20;;;11.70;99.90;;;;;;5030766;28;20034;-72
2023/09/24 03:21:43;;;;;;;8.88;5.18;;;11.70;99.90;;;;;;5013434;28;20500;-72
2023/09/24 03:24:14;;;;;;;11.82;5.63;;;11.70;99.90;;;;;;5029299;28;20029;-72
2023/09/24 03:26:40;;;;;;;10.05;5.65;;;11.70;99.90;;;;;;5004370;28;20049;-72
2023/09/24 03:29:06;;;;;;;11.20;5.40;;;11.70;99.90;;;;;;5020927;28;20049;-72
2023/09/24 03:31:33;;;;;;;11.68;5.38;;;11.70;99.90;;;;;;5028988;28;20035;-72
2023/09/24 03:33:59;;;;;;;10.65;5.03;;;11.70;99.90;;;;;;5030184;28;20053;-70
2023/09/24 03:36:25;;;;;;;7.57;5.03;;;11.70;99.90;;;;;;5030538;28;20047;-72
2023/09/24 03:38:51;;;;;;;10.70;5.55;;;11.70;99.90;;;;;;5030542;28;20120;-72
2023/09/24 03:41:16;;;;;;;10.65;4.90;;;11.70;99.90;;;;;;5030429;28;20044;-72
2023/09/24 03:43:42;;;;;;;11.50;5.85;;;11.70;99.90;;;;;;5029847;28;20484;-72
2023/09/24 03:46:09;;;;;;;10.68;5.60;;;11.60;99.90;;;;;;5030095;28;20034;-71
2023/09/24 03:48:35;;;;;;;11.52;6.15;;;11.60;99.90;;;;;;5019611;28;20060;-72
2023/09/24 03:51:00;;;;;;;11.13;5.57;;;11.60;99.90;;;;;;5014730;28;20033;-71
2023/09/24 03:53:26;;;;;;;11.07;5.43;;;11.60;99.90;;;;;;5020510;28;20081;-72
2023/09/24 03:55:53;;;;;;;12.95;6.10;;;11.60;99.90;;;;;;5029975;28;20063;-71
2023/09/24 03:58:18;;;;;;;11.88;5.65;;;11.60;99.90;;;;;;5029838;28;20045;-72
2023/09/24 04:00:44;;;;;;;10.82;5.72;;;11.60;99.90;;;;;;5029625;28;20510;-72
2023/09/24 04:03:10;;;;;;;11.48;6.00;;;11.50;99.90;;;;;;5030134;28;20029;-70
2023/09/24 04:05:36;;;;;;;11.70;5.60;;;11.60;99.90;;;;;;5029640;28;20484;-72
2023/09/24 04:08:03;;;;;;;10.85;5.80;;;11.50;99.90;;;;;;5012387;28;20447;-71
2023/09/24 04:10:29;;;;;;;10.65;6.35;;;11.50;99.90;;;;;;5027328;28;20408;-71
2023/09/24 04:12:57;;;;;;;11.55;5.85;;;11.50;99.90;;;;;;5025047;28;20045;-72
2023/09/24 04:15:27;;;;;;;12.25;6.60;;;11.50;99.90;;;;;;5030308;22;20052;-66
2023/09/24 04:17:55;;;;;;;10.18;5.78;;;11.50;99.90;;;;;;4987286;28;20050;-66
2023/09/24 04:20:20;;;;;;;11.82;6.35;;;11.40;99.90;;;;;;5006395;28;20447;-66
2023/09/24 04:22:47;;;;;;;10.55;5.80;;;11.40;99.90;;;;;;4997348;28;20120;-66
2023/09/24 04:25:17;;;;;;;10.85;6.05;;;11.40;99.90;;;;;;5009706;28;20077;-66
2023/09/24 04:27:43;;;;;;;11.20;6.65;;;11.40;99.90;;;;;;5005289;28;20033;-66
2023/09/24 04:30:16;;;;;;;14.52;6.88;;;11.40;99.90;;;;;;5010141;28;20041;-66
2023/09/24 04:32:43;;;;;;;13.65;7.00;;;11.30;99.90;;;;;;5010446;28;20041;-67
2023/09/24 04:35:10;;;;;;;11.20;6.63;;;11.30;99.90;;;;;;5010028;28;20042;-66
2023/09/24 04:37:39;;;;;;;13.23;7.28;;;11.30;99.90;;;;;;5009990;28;20054;-66
2023/09/24 04:40:07;;;;;;;13.10;6.53;;;11.30;99.90;;;;;;5006391;28;20082;-66
2023/09/24 04:42:34;;;;;;;12.98;6.78;;;11.30;99.90;;;;;;5014743;28;20041;-65
2023/09/24 04:45:00;;;;;;;14.30;6.93;;;11.30;99.90;;;;;;4991772;28;20034;-66
2023/09/24 04:47:27;;;;;;;13.52;7.28;;;11.30;99.90;;;;;;4990290;28;20481;-66
2023/09/24 04:49:55;;;;;;;14.15;6.95;;;11.30;99.90;;;;;;5009086;28;20515;-65
2023/09/24 04:52:21;;;;;;;12.98;7.47;;;11.30;99.90;;;;;;5000776;28;20038;-66
2023/09/24 04:54:46;;;;;;;18.08;7.20;;;11.20;99.90;;;;;;5009618;28;20116;-66
2023/09/24 04:57:12;;;;;;;13.40;6.82;;;11.20;99.90;;;;;;4993599;28;20045;-66
2023/09/24 04:59:38;;;;;;;15.73;7.60;;;11.20;99.90;;;;;;5012080;28;20480;-66
2023/09/24 05:02:03;;;;;;;15.32;8.10;;;11.20;99.90;;;;;;5013311;28;20038;-66
2023/09/24 05:04:29;;;;;;;10.75;7.05;;;11.20;99.90;;;;;;5007965;28;20030;-66
2023/09/24 05:06:55;;;;;;;13.27;7.55;;;11.20;99.90;;;;;;5013355;28;20030;-66
2023/09/24 05:09:21;;;;;;;11.68;7.25;;;11.10;99.90;;;;;;5008952;28;20416;-67
2023/09/24 05:11:47;;;;;;;14.05;7.40;;;11.10;99.90;;;;;;5013089;28;20124;-66
2023/09/24 05:14:13;;;;;;;15.65;7.40;;;11.10;99.90;;;;;;5008875;28;20165;-66
2023/09/24 05:16:38;;;;;;;14.07;7.65;;;11.00;99.90;;;;;;5012827;28;20038;-66
2023/09/24 05:19:05;;;;;;;17.13;8.30;;;11.00;99.90;;;;;;5012035;28;20103;-65
2023/09/24 05:21:31;;;;;;;15.15;7.68;;;11.10;99.90;;;;;;5008666;28;20045;-66
2023/09/24 05:23:57;;;;;;;12.40;7.55;;;11.10;99.90;;;;;;5012599;28;20117;-66
2023/09/24 05:26:23;;;;;;;17.17;8.07;;;11.00;99.90;;;;;;5012773;28;20187;-66
2023/09/24 05:28:48;;;;;;;13.98;7.82;;;11.00;99.90;;;;;;5004353;28;20470;-66
2023/09/24 05:31:16;;;;;;;14.15;7.90;;;11.00;99.90;;;;;;5011898;28;20542;-66
2023/09/24 05:33:44;;;;;;;15.82;8.13;;;11.00;99.90;;;;;;5009305;28;20040;-66
2023/09/24 05:36:10;;;;;;;14.02;7.57;;;11.00;99.90;;;;;;5013391;28;20038;-66
2023/09/24 05:38:36;;;;;;;12.77;7.60;;;11.00;99.90;;;;;;5010189;28;20069;-66
2023/09/24 05:41:01;;;;;;;12.52;8.13;;;11.00;99.90;;;;;;5013509;28;20072;-66
2023/09/24 05:43:27;;;;;;;13.95;7.50;;;11.00;99.90;;;;;;5012821;28;20036;-66
2023/09/24 05:45:55;;;;;;;13.70;8.15;;;11.00;99.90;;;;;;4983281;28;20041;-66
2023/09/24 05:48:21;;;;;;;14.18;7.80;;;11.00;99.90;;;;;;4995115;28;20554;-66
2023/09/24 05:50:47;;;;;;;16.15;8.93;;;11.00;99.90;;;;;;5013025;28;20030;-65
2023/09/24 05:53:14;;;;;;;15.32;7.90;;;11.00;99.90;;;;;;5005991;28;20476;-66
2023/09/24 05:55:40;;;;;;;14.50;7.53;;;11.00;99.90;;;;;;4995323;28;20396;-66
2023/09/24 05:58:06;;;;;;;12.95;8.10;;;11.00;99.90;;;;;;5007870;28;20026;-66
2023/09/24 06:00:35;;;;;;;16.90;7.97;;;11.00;99.90;;;;;;5010020;28;20039;-66
2023/09/24 06:03:01;;;;;;;13.25;7.88;;;11.00;99.90;;;;;;5000831;28;20053;-65
2023/09/24 06:05:27;;;;;;;14.90;7.75;;;11.00;99.90;;;;;;5010988;28;20408;-66
2023/09/24 06:07:52;;;;;;;16.60;7.95;;;11.00;99.90;;;;;;5009347;28;20038;-66
2023/09/24 06:10:20;;;;;;;15.13;8.02;;;11.00;99.90;;;;;;5006245;28;20116;-66
2023/09/24 06:12:47;;;;;;;14.02;8.10;;;11.00;99.90;;;;;;4999458;28;20053;-66
2023/09/24 06:15:13;;;;;;;15.82;8.88;;;11.00;99.90;;;;;;4999311;28;20042;-66
2023/09/24 06:17:39;;;;;;;16.15;8.70;;;11.00;99.90;;;;;;4990817;28;20070;-66
2023/09/24 06:20:06;;;;;;;14.75;8.55;;;11.00;99.90;;;;;;5003065;28;20496;-66
2023/09/24 06:22:31;;;;;;;16.30;8.75;;;11.00;99.90;;;;;;5006036;28;20030;-64
2023/09/24 06:24:57;;;;;;;14.80;9.02;;;11.00;99.90;;;;;;5011916;28;20373;-66
2023/09/24 06:27:23;;;;;;;15.35;8.30;;;11.00;99.90;;;;;;5002367;28;20037;-66
2023/09/24 06:29:49;;;;;;;17.52;8.65;;;11.00;99.90;;;;;;5009787;28;20033;-66
2023/09/24 06:32:14;;;;;;;18.20;9.20;;;11.00;99.90;;;;;;5012255;28;20038;-66
2023/09/24 06:34:40;;;;;;;14.90;9.15;;;11.00;99.90;;;;;;5010428;28;20125;-66
2023/09/24 06:37:06;;;;;;;13.93;8.93;;;11.00;99.90;;;;;;5007538;28;20073;-65
2023/09/24 06:39:33;;;;;;;16.63;8.93;;;11.10;99.90;;;;;;4993715;28;20045;-66
2023/09/24 06:42:00;;;;;;;13.75;8.95;;;11.10;99.90;;;;;;5009064;28;20045;-66
2023/09/24 06:44:26;;;;;;;17.98;10.27;;;11.10;99.90;;;;;;5011478;28;20038;-66
2023/09/24 06:46:52;;;;;;;14.40;9.15;;;11.10;99.90;;;;;;5010039;28;20514;-66
2023/09/24 06:49:18;;;;;;;15.05;9.25;;;11.10;99.90;;;;;;4988237;28;20042;-66
2023/09/24 06:51:44;;;;;;;16.33;10.00;;;11.10;99.90;;;;;;5007845;28;20064;-66
2023/09/24 06:54:09;;;;;;;18.58;9.30;;;11.10;99.90;;;;;;5000639;28;20548;-66
2023/09/24 06:56:35;;;;;;;16.83;9.27;;;11.20;99.90;;;;;;4993230;28;20101;-66
2023/09/24 06:59:01;;;;;;;21.85;9.82;;;11.20;99.90;;;;;;5007203;28;20049;-66
2023/09/24 07:01:26;;;;;;;13.93;9.45;;;11.20;99.90;;;;;;5000206;28;20077;-66
2023/09/24 07:03:52;;;;;;;15.25;10.15;;;11.20;99.90;;;;;;5007452;28;20037;-66
2023/09/24 07:06:17;;;;;;;15.15;9.68;;;11.30;99.90;;;;;;5011893;28;20087;-66
2023/09/24 07:08:43;;;;;;;19.60;10.30;;;11.30;99.90;;;;;;5008558;28;20100;-66
2023/09/24 07:11:34;;;;;;;19.40;10.38;;;11.30;99.90;;;;;;5011801;28;20495;-65
2023/09/24 07:14:00;;;;;;;13.95;9.88;;;11.30;99.90;;;;;;4988811;28;20404;-67
2023/09/24 07:16:27;;;;;;;15.50;10.45;;;11.40;99.90;;;;;;5001886;28;20072;-66
2023/09/24 07:18:53;;;;;;;16.70;10.05;;;11.40;99.90;;;;;;5010920;28;20030;-66
2023/09/24 07:21:20;;;;;;;16.48;10.00;;;11.40;99.90;;;;;;5010699;28;20045;-66
2023/09/24 07:23:47;;;;;;;14.80;9.98;;;11.40;99.90;;;;;;4978735;28;20048;-67
2023/09/24 07:26:13;;;;;;;20.75;10.38;;;11.40;99.90;;;;;;4993037;28;20042;-67
2023/09/24 07:28:39;;;;;;;17.17;10.18;;;11.50;99.90;;;;;;5010089;28;20037;-67
2023/09/24 07:31:21;;;;;;;19.50;10.65;;;11.50;99.90;;;;;;5010664;28;20044;-67
2023/09/24 07:33:47;;;;;;;18.17;9.93;;;11.50;99.90;;;;;;5008154;28;20069;-67
2023/09/24 07:36:13;;;;;;;21.75;10.98;;;11.50;99.90;;;;;;4993317;28;20044;-67
2023/09/24 07:38:40;;;;;;;16.27;10.10;;;11.60;99.90;;;;;;4988260;28;20116;-67
2023/09/24 07:41:07;;;;;;;17.65;9.77;;;11.60;99.90;;;;;;5004685;28;20392;-65
2023/09/24 07:43:34;;;;;;;17.65;10.55;;;11.70;99.90;;;;;;4993433;28;20039;-67
2023/09/24 07:46:00;;;;;;;15.73;10.38;;;11.70;99.90;;;;;;5001877;28;20052;-67
2023/09/24 07:48:25;;;;;;;17.02;10.38;;;11.80;99.90;;;;;;5008454;28;20496;-67
2023/09/24 07:50:54;;;;;;;20.17;11.20;;;11.80;99.90;;;;;;4999032;28;20048;-67
2023/09/24 07:53:22;;;;;;;17.60;10.63;;;11.90;99.90;;;;;;4991160;28;20041;-67
2023/09/24 07:55:56;;;;;;;17.67;10.75;;;11.90;99.90;;;;;;4979345;28;20038;-67
2023/09/24 07:58:25;;;;;;;17.10;10.60;;;12.00;99.90;;;;;;5007245;28;20046;-65
2023/09/24 08:00:52;;;;;;;19.42;10.50;;;12.00;99.90;;;;;;5009663;28;20034;-67
2023/09/24 08:03:18;;;;;;;21.30;10.95;;;12.10;99.90;;;;;;4992309;28;20038;-67
2023/09/24 08:05:44;;;;;;;17.58;10.43;;;12.10;99.90;;;;;;5009579;28;20235;-67
2023/09/24 08:08:10;;;;;;;20.95;10.68;;;12.20;99.90;;;;;;4995861;28;20365;-69
2023/09/24 08:10:36;;;;;;;16.25;10.27;;;12.20;99.90;;;;;;5001856;28;20130;-67
2023/09/24 08:13:03;;;;;;;20.95;10.80;;;12.30;99.90;;;;;;5009322;28;20482;-67
2023/09/24 08:15:29;;;;;;;18.27;11.23;;;12.30;99.90;;;;;;5005246;28;21545;-65
2023/09/24 08:17:55;;;;;;;18.50;9.70;;;12.40;99.90;;;;;;4997047;28;20084;-65
2023/09/24 08:20:20;;;;;;;19.52;10.32;;;12.40;99.90;;;;;;5007003;28;20033;-67
2023/09/24 08:22:46;;;;;;;18.52;9.85;;;12.50;99.90;;;;;;5004143;28;20044;-67
2023/09/24 08:25:11;;;;;;;20.73;10.35;;;12.50;99.90;;;;;;5008502;28;20045;-67
2023/09/24 08:27:37;;;;;;;17.55;9.70;;;12.60;99.90;;;;;;5005828;28;20133;-67
2023/09/24 08:30:03;;;;;;;16.02;10.82;;;12.60;99.90;;;;;;5009077;28;20074;-66
2023/09/24 08:32:29;;;;;;;18.35;9.70;;;12.70;99.90;;;;;;4992246;28;20092;-66
2023/09/24 08:34:55;;;;;;;17.38;9.63;;;12.70;99.90;;;;;;5010581;28;20444;-67
2023/09/24 08:37:20;;;;;;;18.08;10.38;;;12.80;99.90;;;;;;5001066;28;20037;-67
2023/09/24 08:39:46;;;;;;;19.83;9.48;;;12.80;99.90;;;;;;5001544;28;20172;-67
2023/09/24 08:42:14;;;;;;;15.68;10.07;;;12.90;99.90;;;;;;5007106;28;20034;-67
2023/09/24 08:44:40;;;;;;;14.48;9.20;;;12.90;99.90;;;;;;5013571;28;20034;-67
2023/09/24 08:47:06;;;;;;;15.43;9.30;;;13.00;99.90;;;;;;5013646;28;20037;-67
2023/09/24 08:49:32;;;;;;;15.02;9.70;;;13.00;99.90;;;;;;5003034;28;20116;-67
2023/09/24 08:52:00;;;;;;;17.55;9.55;;;13.00;99.90;;;;;;5006172;28;20145;-67
2023/09/24 08:54:27;;;;;;;18.08;10.50;;;13.10;99.90;;;;;;4997444;28;20041;-67
2023/09/24 08:56:53;;;;;;;15.93;9.77;;;13.10;99.90;;;;;;5013488;28;20052;-67
2023/09/24 08:59:18;;;;;;;18.98;9.48;;;13.20;99.90;;;;;;5013896;28;20037;-67
2023/09/24 09:01:53;;;;;;;16.58;8.80;;;13.30;99.90;;;;;;5013434;28;20527;-67
2023/09/24 09:04:19;;;;;;;13.30;8.35;;;13.40;99.90;;;;;;4993528;28;20042;-67
2023/09/24 09:06:44;;;;;;;14.45;8.43;;;13.40;99.90;;;;;;5013394;28;20377;-67
2023/09/24 09:09:10;;;;;;;16.25;7.75;;;13.50;99.90;;;;;;4994656;28;20461;-66
2023/09/24 09:11:38;;;;;;;19.02;8.52;;;13.60;99.90;;;;;;5012883;28;20053;-67
2023/09/24 09:14:04;;;;;;;15.25;8.43;;;13.60;99.90;;;;;;5005831;28;20049;-66
2023/09/24 09:16:31;;;;;;;14.70;7.60;;;13.70;99.90;;;;;;5002941;28;20053;-68
2023/09/24 09:19:03;;;;;;;16.35;7.15;;;13.80;99.90;;;;;;5012397;28;20496;-67
2023/09/24 09:21:29;;;;;;;11.50;7.05;;;13.90;99.90;;;;;;5000147;28;20056;-66
2023/09/24 09:23:55;;;;;;;13.30;7.53;;;13.90;99.90;;;;;;5010498;28;20045;-67
2023/09/24 09:26:30;;;;;;;15.45;6.68;;;14.00;99.90;;;;;;4999261;28;20038;-67
2023/09/24 09:28:56;;;;;;;16.08;6.45;;;14.10;99.90;;;;;;5008583;28;20052;-67
2023/09/24 09:31:22;;;;;;;12.57;6.45;;;14.20;99.90;;;;;;4993297;28;20033;-67
2023/09/24 09:33:48;;;;;;;13.32;6.30;;;14.30;99.90;;;;;;5012081;28;20034;-67
2023/09/24 09:36:34;;;;;;;11.68;6.07;;;14.40;99.90;;;;;;5001872;28;20423;-67
2023/09/24 09:39:00;;;;;;;13.93;6.25;;;14.50;99.90;;;;;;5007259;28;20095;-67
2023/09/24 09:41:26;;;;;;;10.90;5.78;;;14.60;99.90;;;;;;5011137;28;20052;-67
2023/09/24 09:43:53;;;;;;;10.32;5.57;;;14.80;99.90;;;;;;4979749;28;20038;-67
2023/09/24 09:46:21;;;;;;;12.05;5.72;;;15.00;99.90;;;;;;5011447;28;20074;-68
2023/09/24 09:49:02;;;;;;;11.88;4.95;;;15.20;99.90;;;;;;4995185;28;20045;-68
2023/09/24 09:51:33;;;;;;;9.05;4.68;;;15.30;99.90;;;;;;4998387;28;20041;-68
2023/09/24 09:54:06;;;;;;;10.98;4.35;;;15.50;99.90;;;;;;5003030;28;20084;-69
2023/09/24 09:56:33;;;;;;;7.68;3.75;;;15.70;99.90;;;;;;5010755;28;20033;-69
2023/09/24 09:59:00;;;;;;;9.88;3.90;;;15.80;99.90;;;;;;5010736;28;20080;-70
2023/09/24 10:01:25;;;;;;;11.30;4.38;;;16.00;99.90;;;;;;5012344;28;20113;-69
2023/09/24 10:03:53;;;;;;;9.48;3.72;;;16.20;99.90;;;;;;4992208;28;20104;-70
2023/09/24 10:06:19;;;;;;;8.13;3.22;;;16.40;99.90;;;;;;4994645;28;20034;-70
2023/09/24 10:08:48;;;;;;;5.75;3.08;;;16.50;99.90;;;;;;5002379;28;20042;-70
2023/09/24 10:11:43;;;;;;;7.60;3.30;;;16.60;99.90;;;;;;5011425;28;20480;-68
2023/09/24 10:14:09;;;;;;;7.22;3.33;;;16.80;99.90;;;;;;4989087;28;20073;-70
2023/09/24 10:16:38;;;;;;;5.80;3.47;;;16.90;99.90;;;;;;5031824;23;20055;-76
2023/09/24 10:19:12;;;;;;;9.75;3.30;;;17.00;99.90;;;;;;4981920;28;20034;-78
2023/09/24 10:21:44;;;;;;;8.82;3.17;;;17.20;99.90;;;;;;4978605;28;20058;-78
2023/09/24 10:24:10;;;;;;;;;;;17.20;99.90;;;;;;4975447;28;20053;-78
2023/09/24 10:26:50;;;;;;;5.68;2.58;;;17.40;99.90;;;;;;4979652;28;20000;-78
2023/09/24 10:29:17;;;;;;;6.97;2.88;;;17.50;99.90;;;;;;4963197;28;20038;-78
2023/09/24 10:32:08;;;;;;;6.97;3.15;;;17.60;99.90;;;;;;4956462;28;20042;-78
2023/09/24 10:35:00;;;;;;;6.57;2.60;;;17.70;99.90;;;;;;4967055;28;20072;-78
2023/09/24 10:37:34;;;;;;;6.03;2.50;;;17.80;99.90;;;;;;4976514;28;20070;-78
2023/09/24 10:40:05;;;;;;;6.82;2.47;;;17.90;99.90;;;;;;4972680;28;20042;-73
2023/09/24 10:42:38;;;;;;;6.18;2.33;;;17.90;99.90;;;;;;4948475;28;20121;-77
2023/09/24 10:45:06;;;;;;;7.88;2.42;;;18.00;99.90;;;;;;4973422;28;20034;-78
2023/09/24 10:47:40;;;;;;;4.40;2.22;;;18.00;99.90;;;;;;4963601;28;20387;-78
2023/09/24 10:50:17;;;;;;;6.63;2.30;;;18.10;99.90;;;;;;4968603;28;20061;-78
2023/09/24 10:53:02;;;;;;;3.70;1.85;;;18.30;99.90;;;;;;4959933;28;20042;-78
2023/09/24 10:55:36;;;;;;;;;;;18.30;99.90;;;;;;4976461;28;20035;-78
2023/09/24 10:58:16;;;;;;;7.25;2.20;;;18.60;99.90;;;;;;4971152;28;19925;-78
2023/09/24 11:00:44;;;;;;;5.50;2.05;;;18.50;99.90;;;;;;4971294;28;20466;-78
2023/09/24 11:03:13;;;;;;;6.18;2.17;;;18.50;99.90;;;;;;4959940;28;20077;-78
2023/09/24 11:05:48;;;;;;;7.47;2.20;;;18.80;99.90;;;;;;4974636;28;20354;-79
2023/09/24 11:08:17;;;;;;;6.55;2.28;;;18.80;99.90;;;;;;4974410;28;20030;-78
2023/09/24 11:10:46;;;;;;;;;;;18.80;99.90;;;;;;4959888;28;20069;-78
2023/09/24 11:13:12;;;;;;;6.78;2.13;;;18.90;99.90;;;;;;4979803;28;20322;-78
2023/09/24 11:15:42;;;;;;;6.68;2.00;;;19.00;99.90;;;;;;4968146;28;20042;-78
2023/09/24 11:18:15;;;;;;;;;;;19.00;99.90;;;;;;5109020;27;20323;-71
2023/09/24 11:20:51;;;;;;;7.10;2.22;;;19.10;99.90;;;;;;5111893;28;20284;-71
2023/09/24 11:23:17;;;;;;;5.65;2.15;;;19.20;99.90;;;;;;5110077;28;20036;-72
2023/09/24 11:25:47;;;;;;;5.43;1.83;;;19.30;99.90;;;;;;5106543;28;22295;-71
2023/09/24 11:28:13;;;;;;;4.38;1.50;;;19.40;99.90;;;;;;5101914;28;20050;-71
2023/09/24 11:30:43;;;;;;;6.13;1.90;;;19.40;99.90;;;;;;5109590;28;20032;-71
2023/09/24 11:33:20;;;;;;;5.43;1.75;;;19.40;99.90;;;;;;5104583;27;20035;-73
2023/09/24 11:35:46;;;;;;;4.85;2.10;;;19.40;99.90;;;;;;5102901;28;20039;-73
2023/09/24 11:38:12;;;;;;;6.47;2.08;;;19.40;99.90;;;;;;5103899;28;20040;-73
2023/09/24 11:40:40;;;;;;;5.90;1.92;;;19.40;99.90;;;;;;5107948;28;20401;-72
2023/09/24 11:43:12;;;;;;;6.82;2.33;;;19.40;99.90;;;;;;5108356;28;20497;-72
2023/09/24 11:45:53;;;;;;;6.50;2.03;;;19.40;99.90;;;;;;5102764;28;20046;-72
2023/09/24 11:48:23;;;;;;;6.13;2.22;;;19.50;99.90;;;;;;5097925;28;20040;-72
2023/09/24 11:50:56;;;;;;;5.50;2.10;;;19.50;99.90;;;;;;5104952;27;20408;-73
2023/09/24 11:53:26;;;;;;;8.02;2.22;;;19.60;99.90;;;;;;5112447;28;20071;-72
2023/09/24 11:55:54;;;;;;;5.43;2.08;;;19.60;99.90;;;;;;5107595;28;20490;-73
2023/09/24 11:58:26;;;;;;;5.65;1.95;;;19.60;99.90;;;;;;5105482;28;20044;-72
2023/09/24 12:00:52;;;;;;;4.78;1.90;;;19.70;99.90;;;;;;5111612;28;20067;-72
2023/09/24 12:03:18;;;;;;;7.15;2.40;;;19.70;99.90;;;;;;5100879;28;20127;-73
2023/09/24 12:05:47;;;;;;;7.00;2.20;;;19.70;99.90;;;;;;5100318;28;20463;-72
2023/09/24 12:08:12;;;;;;;7.60;2.20;;;19.80;99.90;;;;;;5096491;28;20131;-72
2023/09/24 12:10:40;;;;;;;5.28;1.92;;;19.80;99.90;;;;;;5104135;28;20445;-72
2023/09/24 12:13:06;;;;;;;5.55;1.77;;;19.60;99.90;;;;;;5103088;28;20039;-72
2023/09/24 12:15:32;;;;;;;4.75;1.77;;;19.40;99.90;;;;;;5100499;28;20039;-72
2023/09/24 12:17:59;;;;;;;4.25;2.00;;;19.30;99.90;;;;;;5107329;27;20042;-72
2023/09/24 12:20:25;;;;;;;7.10;2.10;;;19.20;99.90;;;;;;5106273;28;20039;-72
2023/09/24 12:22:51;;;;;;;5.75;1.90;;;19.20;99.90;;;;;;5103328;28;20140;-73
2023/09/24 12:25:17;;;;;;;7.13;2.20;;;19.20;99.90;;;;;;5109475;28;20126;-72
2023/09/24 12:27:43;;;;;;;5.60;1.90;;;19.20;99.90;;;;;;5094945;28;20063;-72
2023/09/24 12:30:11;;;;;;;7.28;2.28;;;19.20;99.90;;;;;;5088539;28;20097;-72
2023/09/24 12:32:41;;;;;;;7.45;2.35;;;19.20;99.90;;;;;;5082880;28;20043;-72
2023/09/24 12:35:09;;;;;;;6.28;1.95;;;19.10;99.90;;;;;;5074831;28;20486;-72
2023/09/24 12:37:35;;;;;;;4.80;1.80;;;19.10;99.90;;;;;;5098562;28;20093;-72
2023/09/24 12:40:07;;;;;;;7.50;2.58;;;19.00;99.90;;;;;;5091348;28;20077;-72
2023/09/24 12:42:34;;;;;;;7.15;1.90;;;18.90;99.90;;;;;;5092153;28;20043;-77
2023/09/24 12:45:00;;;;;;;5.97;2.15;;;18.90;99.90;;;;;;5096458;28;20040;-72